Farmington, Illinois
Current Conditions -  °F | °C
As of 1:54 PM on Friday 21 Nov 2014 (Local Time) from KPIA Reporting Station
Clear Clear  
Wind Chill: 30°   Ceiling: Unl
Heat Index: 38°   Visibility: 10mi
Dew Point:   Wind: 12mph
Humidity: 27%   Direction: 180°S
Pressure: 30.34"   Gusts: NA
Location:  40.7°N, 90.01°W
Report Text: KPIA 211954Z 18010KT 10SM CLR 03/M14 A3034 RMK AO2 SLP281 T00331144
Loading
Personal Weather Stations






























Interactive Weather Map New forecast layout! Learn more

10-Day Weather Forecast

Advertisements
Track Severe Weather on mobile